South Hadley, MA (01075)

11:39 AM EDT on September 30, 2014 (GMT -0400)
South Hadley & surrounded by trees | Change Station
CLOSE
Current Station
Personal Weather Station
Location: South Hadley, MA
Elevation: 265 ft
Nearby Weather Stations

Elev 265 ft 42.27 °N, 72.52 °W | Updated 4 minutes ago

Overcast
Overcast
59.7 °F
Feels Like 59.7 °F
N
0.0
Wind Variable Wind from East
Gusts 0.0 mph

Today
High -- | Low -- °F
--% Chance of Precip.
Yesterday
High -- | Low -- °F
Precip. -- in
6:46 AM 6:33 PM
Waxing Crescent, 37% visible
Pressure 30.04 in
Visibility 10.0 miles
Clouds Overcast 1300 ft
Dew Point 53 °F
Humidity 78%
Rainfall 0.00 in
Snow Depth Not available.
UV 2 out of 12
Pollen 1.40 out of 12
Air Quality Not available.
Flu Activity Not available.
METAR KCEF 301458Z AUTO 02002KT 10SM OVC013 15/12 A3002 RMK AO2 SLP172 T01520120 58001

More Conditions Fewer Conditions

Pressure 30.04 in
Visibility 10.0 miles
Clouds Overcast 1300 ft
Dew Point 53 °F
Humidity 78%
Rainfall 0.00 in
Snow Depth Not available.
UV 2 out of 12
Pollen 1.40 out of 12
Air Quality Not available.
Flu Activity Not available.
METAR KCEF 301458Z AUTO 02002KT 10SM OVC013 15/12 A3002 RMK AO2 SLP172 T01520120 58001

More Conditions Fewer Conditions

10-Day Weather Forecast

Almanac

Astronomy

Sep. 30, 2014 Rise Set
Actual Time 6:46 AM EDT 6:33 PM EDT
Civil Twilight 6:18 AM EDT 7:01 PM EDT
Nautical Twilight 5:45 AM EDT 7:33 PM EDT
Astronomical Twilight 5:12 AM EDT 8:06 PM EDT
Moon 12:56 PM EDT 10:56 PM EDT
Length of Visible Light 12h 43m
Length of Day
11h 47m
Tomorrow will be 2m 50s shorter.
Waxing Crescent, 37% of the Moon is Illuminated
Today
Waxing Crescent
Oct 1
First Quarter
Oct 8
Full
Oct 15
Last Quarter
Oct 23
New

Today's Extremes

State Highs State Lows

Community

WunderPhotos

Upload Photos

1,757,669 photos uploaded!

Nearby

Air Quality

  Air Quality AQ Index Pollutant
Tuesday Good
PM2.5
Tuesday Good
OZONE

Snow Depth

Station Depth Elevation
No new snow has been reported.

Earthquake Activity

City Distance Mag. Time & Date
No recent earthquake activity has been reported nearby.
Minimum magnitude displayed is 2.5.

Coastal Water Temperatures

Place Temperature
No Stations Reporting

Nearby Weather Stations